CYDP/YDP METAR and TAF weather

Enter ICAO airport designator
Station Type Date Time Source
CYDP METAR 2019/06/15 23:00 UTC NOAA

CYDP 152300Z 06006KT 1/2SM -SHRA FG VV001 01/01 A2991 RMK FG8 LAST STAFFED OB/ NEXT 160800 SLP129


Station Type Date Time Source
CYDP Decoded METAR 2019/06/15 23:00 UTC NOAA

Nain, Nfld, Canada (CYDP) 56-33N 061-41W 7M
Jun 15, 2019 - 07:00 PM EDT / 2019.06.15 2300 UTC
Wind: from the ENE (060 degrees) at 7 MPH (6 KT):0
Visibility: 1/2 mile(s):0
Sky conditions: obscured
Weather: light rain showers; fog
Temperature: 33 F (1 C)
Windchill: 26 F (-3 C):1
Dew Point: 33 F (1 C)
Relative Humidity: 100%
Pressure (altimeter): 29.91 in. Hg (1012 hPa)
ob: CYDP 152300Z 06006KT 1/2SM -SHRA FG VV001 01/01 A2991 RMK FG8 LAST STAFFED OB/ NEXT 160800 SLP129
cycle: 23

Station Type Date Time Source
CYDP TAF 2019/06/15 20:00 UTC NOAA

TAF CYDP 151939Z 1520/1523 07010KT P6SM FEW006 BKN012 OVC130
TEMPO 1520/1523 3SM -RA -DZ BR OVC007
RMK NXT FCST WILL BE ISSUED AT 160945Z

Example: see airport list